Vremea acum in Beclean - Romania

Vrei sa afli care e starea vremii acum in Bistrita-Nasaud - Romania? Dorim sa iti furnizam starea vremii pentru Bistrita-Nasaud - Romania. Starea vremii Bistrita-Nasaud - Romania pentru astazi.

Vremea acum in Beclean

Temperatura: 13.2 °C

Este: Senin
Se simte ca: 13.7 °C
Innorat: 0 %
Precipitatii: 0 %
Presiune atmosferica: 1016 hPa
Umiditate: 77%
Vizibilitate: 10 km
Vantul bate din N cu 4 km/h

Evolutia vremii in Beclean pe ore

Ora: 05:00
Senin
Temperatura: 9.6°C
Sansa de precipitatii: 0%
Ora Descriere Temp Se simte Precipitatii Umiditate Vant
00:00Senin10.5°10.7°0%86%NNW 4 KM/H
01:00Senin13.2°10.3°0%77%N 4 KM/H
02:00Senin9.8°9.8°0%88%N 4.3 KM/H
03:00Senin9.7°9.8°0%88%N 4 KM/H
04:00Senin9.7°9.8°0%88%N 4 KM/H
05:00Senin9.6°10°0%88%N 3.2 KM/H
06:009.4°9.7°0%88%N 3.2 KM/H
07:0011.2°11.2°0%85%NNE 2.9 KM/H
08:00Innorat13.8°13.8°0%80%NNE 0.7 KM/H
09:00Acoperit de nori15.3°15.3°0%75%N 0.4 KM/H
10:00Acoperit de nori16.6°16.6°0%71%SSW 1.1 KM/H
11:00Acoperit de nori17.7°17.7°0%68%WSW 2.5 KM/H
12:00Patchy rain nearby18.5°18.5°87%66%W 5.8 KM/H
13:00Ploi usoare18.5°18.5°100%67%W 7.9 KM/H
14:00Ploi usoare18.2°18.2°100%68%WNW 7.6 KM/H
15:00Ploi usoare17.6°17.6°100%71%NW 4.7 KM/H
16:00Ploi usoare16.5°16.5°100%79%ENE 3.6 KM/H
17:00Ploi usoare16°16°100%82%ESE 5.8 KM/H
18:00Patchy rain nearby15.6°15.6°100%84%SE 5.4 KM/H
19:00Patchy rain nearby15.3°15.3°89%87%SE 4.7 KM/H
20:00Patchy rain nearby14.2°15°81%89%SE 3.2 KM/H
21:00Patchy rain nearby12.2°12.7°100%90%ESE 3.6 KM/H
22:00Patchy rain nearby11.6°12.1°80%89%ESE 3.2 KM/H
23:00Patchy rain nearby10.6°10.6°78%90%SE 2.2 KM/H




tutorials